Aérodrome :
LOGIN :

S'inscrire | Disclaimer

   EN    FR    IT 

 










Légende :    VFR   VFR Marginal   IFR   IFR Intensif   IFR Très Intensif
Visi : 
Plafond : 
>= 8 km
>= 3000ft
5 à 8 km
1000 à 3000 ft
1500m à 5 km
500 à 1000 ft
800 à 1500m
200 à 500 ft
< 800m
< 200 ft
Symboles :   Orages  Brouillard  Fortes neiges  Fortes précipitations  Vent > 20 kt
SIGMETs :   Divers  Orages  Givrage  Turbulence  Onde Orograph.  Cendres Volcan.







- Altitude de l'aérodrome : 209 ft
- Code IATA : CLY
- Voir les cartes d'approche


LFKC - Calvi

DERNIER METAR :
  • 251200Z AUTO 34011KT 300V030 9999 ///CB 26/15 Q1015 TEMPO TS

METARs EXPIRÉS :
  • 251130Z AUTO 35011KT 320V030 9999 ///TCU 26/16 Q1015 TEMPO TS FEW030CB BKN080
  • 251100Z AUTO 35010KT 310V020 9999 FEW020/// ///TCU 26/19 Q1015 TEMPO TS FEW030CB BKN080
  • 251030Z AUTO 36011KT 320V030 CAVOK 25/19 Q1014 TEMPO TS FEW030CB BKN080
  • 251000Z AUTO 34009KT 310V010 CAVOK 25/18 Q1014 TEMPO TS FEW030CB BKN080
  • 250930Z AUTO 35008KT 320V020 CAVOK 25/18 Q1014 TEMPO TS FEW030CB BKN080

TAF TAF LFKC
Valide du 25 à 09h jusqu'au 26 à 09h UTC


250800Z 2509/2609 36008KT CAVOK
BECMG 2509/2511 FEW030TCU
TEMPO 2511/2518 SCT040TCU
PROB40
TEMPO 2511/2517 TS FEW030CB BKN080
BECMG 2519/2521 18006KT CAVOK TX27/2513Z TN15/2604Z
ATIS : +33 4 95 65 82 49
Pas de NOTAMs connus pour ce terrain.
1 SIGMET publié pour la FIR Marseille (LFMM) :
 
Orages noyés dans la masse
LFMM SIGMET 1 VALID 251200/251300 LFPW
LFMM MARSEILLE FIR/UIR EMBD TS OBS AT 1200Z S OF N4230 AND E OF E00830 TOP FL240 STNR NC=



MET'MAP, la Météo Aéronautique d'un coup d'oeil ! - Copyright ORBIFLY Décembre 2007 - Disclaimer

ORBIFLY MET'MAP TEAM :

Programmation & Développement : Alexandra Zaïnal
Conception & Développement : Baudouin d'Aumeries
Co-Programmation & Développement : Marc-Olivier Méhu
Soutien technique & logistique : Manuel Goepfert

Contact : metmap@orbifly.com




SOURCES & CREDITS :

   NOAA